sensor_id;sensor_type;location;lat;lon;timestamp;P1;durP1;ratioP1;P2;durP2;ratioP2
5811;SDS011;2932;52.400;9.558;2023-11-18T00:02:18;16.70;;;11.23;;
5811;SDS011;2932;52.400;9.558;2023-11-18T00:04:43;14.93;;;9.97;;
5811;SDS011;2932;52.400;9.558;2023-11-18T00:07:08;14.70;;;11.00;;
5811;SDS011;2932;52.400;9.558;2023-11-18T00:09:34;16.40;;;11.53;;
5811;SDS011;2932;52.400;9.558;2023-11-18T00:11:59;13.23;;;10.13;;
5811;SDS011;2932;52.400;9.558;2023-11-18T00:14:25;19.37;;;11.77;;
5811;SDS011;2932;52.400;9.558;2023-11-18T00:16:50;16.63;;;10.63;;
5811;SDS011;2932;52.400;9.558;2023-11-18T00:19:15;18.57;;;10.37;;
5811;SDS011;2932;52.400;9.558;2023-11-18T00:21:41;16.93;;;10.03;;
5811;SDS011;2932;52.400;9.558;2023-11-18T00:24:07;12.60;;;9.03;;
5811;SDS011;2932;52.400;9.558;2023-11-18T00:26:33;13.00;;;9.87;;
5811;SDS011;2932;52.400;9.558;2023-11-18T00:28:59;14.90;;;9.67;;
5811;SDS011;2932;52.400;9.558;2023-11-18T00:31:25;16.97;;;10.00;;
5811;SDS011;2932;52.400;9.558;2023-11-18T00:33:51;14.10;;;10.17;;
5811;SDS011;2932;52.400;9.558;2023-11-18T00:36:17;16.47;;;11.03;;
5811;SDS011;2932;52.400;9.558;2023-11-18T00:38:42;15.00;;;9.53;;
5811;SDS011;2932;52.400;9.558;2023-11-18T00:41:08;14.40;;;9.50;;
5811;SDS011;2932;52.400;9.558;2023-11-18T00:43:33;14.20;;;10.43;;
5811;SDS011;2932;52.400;9.558;2023-11-18T00:45:58;13.90;;;9.83;;
5811;SDS011;2932;52.400;9.558;2023-11-18T00:48:24;15.90;;;10.07;;
5811;SDS011;2932;52.400;9.558;2023-11-18T00:50:50;17.63;;;10.50;;
5811;SDS011;2932;52.400;9.558;2023-11-18T00:53:16;12.87;;;9.83;;
5811;SDS011;2932;52.400;9.558;2023-11-18T00:55:42;14.17;;;9.33;;
5811;SDS011;2932;52.400;9.558;2023-11-18T00:58:07;13.23;;;9.50;;
5811;SDS011;2932;52.400;9.558;2023-11-18T01:00:33;12.70;;;9.57;;
5811;SDS011;2932;52.400;9.558;2023-11-18T01:02:58;15.03;;;9.10;;
5811;SDS011;2932;52.400;9.558;2023-11-18T01:05:23;14.47;;;9.10;;
5811;SDS011;2932;52.400;9.558;2023-11-18T01:07:49;15.93;;;9.87;;
5811;SDS011;2932;52.400;9.558;2023-11-18T01:10:14;12.43;;;9.30;;
5811;SDS011;2932;52.400;9.558;2023-11-18T01:12:40;11.93;;;8.67;;
5811;SDS011;2932;52.400;9.558;2023-11-18T01:15:10;12.47;;;9.00;;
5811;SDS011;2932;52.400;9.558;2023-11-18T01:17:37;14.40;;;10.03;;
5811;SDS011;2932;52.400;9.558;2023-11-18T01:20:03;15.63;;;9.07;;
5811;SDS011;2932;52.400;9.558;2023-11-18T01:22:34;11.33;;;8.37;;
5811;SDS011;2932;52.400;9.558;2023-11-18T01:24:59;15.00;;;9.07;;
5811;SDS011;2932;52.400;9.558;2023-11-18T01:27:26;12.50;;;9.03;;
5811;SDS011;2932;52.400;9.558;2023-11-18T01:29:51;12.83;;;9.17;;
5811;SDS011;2932;52.400;9.558;2023-11-18T01:32:16;11.00;;;8.73;;
5811;SDS011;2932;52.400;9.558;2023-11-18T01:34:42;13.33;;;9.43;;
5811;SDS011;2932;52.400;9.558;2023-11-18T01:37:09;13.33;;;9.00;;
5811;SDS011;2932;52.400;9.558;2023-11-18T01:39:35;15.07;;;9.30;;
5811;SDS011;2932;52.400;9.558;2023-11-18T01:42:01;21.37;;;10.00;;
5811;SDS011;2932;52.400;9.558;2023-11-18T01:44:28;11.70;;;9.03;;
5811;SDS011;2932;52.400;9.558;2023-11-18T01:46:54;16.17;;;9.70;;
5811;SDS011;2932;52.400;9.558;2023-11-18T01:49:21;15.53;;;9.83;;
5811;SDS011;2932;52.400;9.558;2023-11-18T01:51:47;14.00;;;9.53;;
5811;SDS011;2932;52.400;9.558;2023-11-18T01:54:16;11.63;;;8.97;;
5811;SDS011;2932;52.400;9.558;2023-11-18T01:56:45;16.73;;;9.30;;
5811;SDS011;2932;52.400;9.558;2023-11-18T01:59:12;11.90;;;8.70;;
5811;SDS011;2932;52.400;9.558;2023-11-18T02:01:43;13.13;;;9.43;;
5811;SDS011;2932;52.400;9.558;2023-11-18T02:04:11;12.67;;;9.23;;
5811;SDS011;2932;52.400;9.558;2023-11-18T02:06:37;15.83;;;10.70;;
5811;SDS011;2932;52.400;9.558;2023-11-18T02:09:03;16.33;;;10.43;;
5811;SDS011;2932;52.400;9.558;2023-11-18T02:11:33;16.43;;;11.17;;
5811;SDS011;2932;52.400;9.558;2023-11-18T02:14:06;16.83;;;10.17;;
5811;SDS011;2932;52.400;9.558;2023-11-18T02:16:36;17.20;;;10.67;;
5811;SDS011;2932;52.400;9.558;2023-11-18T02:19:03;15.13;;;10.53;;
5811;SDS011;2932;52.400;9.558;2023-11-18T02:21:34;14.73;;;10.73;;
5811;SDS011;2932;52.400;9.558;2023-11-18T02:24:02;13.67;;;10.50;;
5811;SDS011;2932;52.400;9.558;2023-11-18T02:26:29;15.67;;;10.27;;
5811;SDS011;2932;52.400;9.558;2023-11-18T02:28:55;14.67;;;11.40;;
5811;SDS011;2932;52.400;9.558;2023-11-18T02:31:22;13.90;;;10.10;;
5811;SDS011;2932;52.400;9.558;2023-11-18T02:34:10;16.53;;;10.43;;
5811;SDS011;2932;52.400;9.558;2023-11-18T02:36:42;13.27;;;10.03;;
5811;SDS011;2932;52.400;9.558;2023-11-18T02:39:12;12.80;;;10.27;;
5811;SDS011;2932;52.400;9.558;2023-11-18T02:41:42;15.27;;;10.90;;
5811;SDS011;2932;52.400;9.558;2023-11-18T02:44:12;16.17;;;9.67;;
5811;SDS011;2932;52.400;9.558;2023-11-18T02:46:42;13.57;;;10.07;;
5811;SDS011;2932;52.400;9.558;2023-11-18T02:49:08;14.37;;;10.23;;
5811;SDS011;2932;52.400;9.558;2023-11-18T02:51:34;16.23;;;10.57;;
5811;SDS011;2932;52.400;9.558;2023-11-18T02:54:04;13.73;;;10.00;;
5811;SDS011;2932;52.400;9.558;2023-11-18T02:56:31;15.63;;;10.50;;
5811;SDS011;2932;52.400;9.558;2023-11-18T02:58:57;12.47;;;10.47;;
5811;SDS011;2932;52.400;9.558;2023-11-18T03:01:22;13.33;;;9.93;;
5811;SDS011;2932;52.400;9.558;2023-11-18T03:03:50;15.37;;;10.10;;
5811;SDS011;2932;52.400;9.558;2023-11-18T03:06:15;13.17;;;9.80;;
5811;SDS011;2932;52.400;9.558;2023-11-18T03:08:40;19.83;;;10.30;;
5811;SDS011;2932;52.400;9.558;2023-11-18T03:11:06;15.73;;;10.77;;
5811;SDS011;2932;52.400;9.558;2023-11-18T03:13:34;15.07;;;10.17;;
5811;SDS011;2932;52.400;9.558;2023-11-18T03:15:59;14.93;;;11.03;;
5811;SDS011;2932;52.400;9.558;2023-11-18T03:18:25;15.90;;;11.17;;
5811;SDS011;2932;52.400;9.558;2023-11-18T03:20:50;16.63;;;12.00;;
5811;SDS011;2932;52.400;9.558;2023-11-18T03:23:16;15.57;;;11.03;;
5811;SDS011;2932;52.400;9.558;2023-11-18T03:25:42;16.03;;;11.00;;
5811;SDS011;2932;52.400;9.558;2023-11-18T03:28:07;14.93;;;11.50;;
5811;SDS011;2932;52.400;9.558;2023-11-18T03:30:33;15.17;;;11.43;;
5811;SDS011;2932;52.400;9.558;2023-11-18T03:33:00;14.97;;;10.93;;
5811;SDS011;2932;52.400;9.558;2023-11-18T03:35:25;15.13;;;11.40;;
5811;SDS011;2932;52.400;9.558;2023-11-18T03:37:50;15.40;;;12.33;;
5811;SDS011;2932;52.400;9.558;2023-11-18T03:40:16;15.60;;;11.43;;
5811;SDS011;2932;52.400;9.558;2023-11-18T03:42:42;15.50;;;11.83;;
5811;SDS011;2932;52.400;9.558;2023-11-18T03:45:07;16.87;;;11.73;;
5811;SDS011;2932;52.400;9.558;2023-11-18T03:47:34;15.77;;;11.17;;
5811;SDS011;2932;52.400;9.558;2023-11-18T03:49:59;15.77;;;11.60;;
5811;SDS011;2932;52.400;9.558;2023-11-18T03:52:25;14.93;;;11.17;;
5811;SDS011;2932;52.400;9.558;2023-11-18T03:54:51;13.17;;;10.70;;
5811;SDS011;2932;52.400;9.558;2023-11-18T03:57:16;16.77;;;11.60;;
5811;SDS011;2932;52.400;9.558;2023-11-18T03:59:41;16.17;;;11.83;;
5811;SDS011;2932;52.400;9.558;2023-11-18T04:02:07;14.97;;;11.17;;
5811;SDS011;2932;52.400;9.558;2023-11-18T04:04:32;17.30;;;11.23;;
5811;SDS011;2932;52.400;9.558;2023-11-18T04:06:58;16.17;;;12.10;;
5811;SDS011;2932;52.400;9.558;2023-11-18T04:09:25;13.90;;;11.23;;
5811;SDS011;2932;52.400;9.558;2023-11-18T04:11:51;16.87;;;11.37;;
5811;SDS011;2932;52.400;9.558;2023-11-18T04:14:16;14.13;;;11.23;;
5811;SDS011;2932;52.400;9.558;2023-11-18T04:16:44;15.47;;;10.73;;
5811;SDS011;2932;52.400;9.558;2023-11-18T04:19:10;17.93;;;12.77;;
5811;SDS011;2932;52.400;9.558;2023-11-18T04:21:36;53.20;;;28.43;;
5811;SDS011;2932;52.400;9.558;2023-11-18T04:24:01;18.03;;;13.73;;
5811;SDS011;2932;52.400;9.558;2023-11-18T04:26:26;15.97;;;12.20;;
5811;SDS011;2932;52.400;9.558;2023-11-18T04:28:52;14.80;;;11.83;;
5811;SDS011;2932;52.400;9.558;2023-11-18T04:31:17;17.43;;;12.40;;
5811;SDS011;2932;52.400;9.558;2023-11-18T04:33:42;18.90;;;13.13;;
5811;SDS011;2932;52.400;9.558;2023-11-18T04:36:09;19.97;;;13.63;;
5811;SDS011;2932;52.400;9.558;2023-11-18T04:38:35;18.10;;;12.93;;
5811;SDS011;2932;52.400;9.558;2023-11-18T04:41:01;16.97;;;13.07;;
5811;SDS011;2932;52.400;9.558;2023-11-18T04:43:28;17.77;;;13.00;;
5811;SDS011;2932;52.400;9.558;2023-11-18T04:45:54;20.87;;;13.53;;
5811;SDS011;2932;52.400;9.558;2023-11-18T04:48:19;20.87;;;14.07;;
5811;SDS011;2932;52.400;9.558;2023-11-18T04:50:46;17.97;;;13.60;;
5811;SDS011;2932;52.400;9.558;2023-11-18T04:53:11;20.87;;;12.73;;
5811;SDS011;2932;52.400;9.558;2023-11-18T04:55:37;21.07;;;13.40;;
5811;SDS011;2932;52.400;9.558;2023-11-18T04:58:03;16.70;;;12.53;;
5811;SDS011;2932;52.400;9.558;2023-11-18T05:00:30;17.50;;;12.57;;
5811;SDS011;2932;52.400;9.558;2023-11-18T05:02:59;18.63;;;13.70;;
5811;SDS011;2932;52.400;9.558;2023-11-18T05:05:24;16.90;;;13.20;;
5811;SDS011;2932;52.400;9.558;2023-11-18T05:07:49;18.30;;;14.27;;
5811;SDS011;2932;52.400;9.558;2023-11-18T05:10:15;22.17;;;14.93;;
5811;SDS011;2932;52.400;9.558;2023-11-18T05:12:40;20.03;;;14.33;;
5811;SDS011;2932;52.400;9.558;2023-11-18T05:15:08;22.93;;;14.73;;
5811;SDS011;2932;52.400;9.558;2023-11-18T05:17:34;24.33;;;15.00;;
5811;SDS011;2932;52.400;9.558;2023-11-18T05:20:03;24.40;;;15.23;;
5811;SDS011;2932;52.400;9.558;2023-11-18T05:22:29;28.53;;;16.33;;
5811;SDS011;2932;52.400;9.558;2023-11-18T05:24:54;19.57;;;14.77;;
5811;SDS011;2932;52.400;9.558;2023-11-18T05:27:20;22.17;;;15.47;;
5811;SDS011;2932;52.400;9.558;2023-11-18T05:29:45;21.37;;;16.07;;
5811;SDS011;2932;52.400;9.558;2023-11-18T05:32:13;25.53;;;15.43;;
5811;SDS011;2932;52.400;9.558;2023-11-18T05:34:39;22.30;;;16.57;;
5811;SDS011;2932;52.400;9.558;2023-11-18T05:37:04;21.40;;;16.10;;
5811;SDS011;2932;52.400;9.558;2023-11-18T05:39:29;22.67;;;16.37;;
5811;SDS011;2932;52.400;9.558;2023-11-18T05:41:59;25.37;;;16.50;;
5811;SDS011;2932;52.400;9.558;2023-11-18T05:44:24;22.73;;;15.93;;
5811;SDS011;2932;52.400;9.558;2023-11-18T05:46:58;23.37;;;16.23;;
5811;SDS011;2932;52.400;9.558;2023-11-18T05:49:24;23.90;;;17.03;;
5811;SDS011;2932;52.400;9.558;2023-11-18T05:51:49;25.73;;;17.83;;
5811;SDS011;2932;52.400;9.558;2023-11-18T05:54:15;27.70;;;17.10;;
5811;SDS011;2932;52.400;9.558;2023-11-18T05:56:40;21.90;;;16.20;;
5811;SDS011;2932;52.400;9.558;2023-11-18T05:59:06;25.63;;;16.80;;
5811;SDS011;2932;52.400;9.558;2023-11-18T06:01:33;22.03;;;16.00;;
5811;SDS011;2932;52.400;9.558;2023-11-18T06:03:59;27.80;;;17.50;;
5811;SDS011;2932;52.400;9.558;2023-11-18T06:06:25;21.67;;;14.73;;
5811;SDS011;2932;52.400;9.558;2023-11-18T06:08:51;25.43;;;16.53;;
5811;SDS011;2932;52.400;9.558;2023-11-18T06:11:18;27.23;;;15.87;;
5811;SDS011;2932;52.400;9.558;2023-11-18T06:13:47;23.53;;;16.10;;
5811;SDS011;2932;52.400;9.558;2023-11-18T06:18:50;24.13;;;15.80;;
5811;SDS011;2932;52.400;9.558;2023-11-18T06:21:18;22.70;;;16.70;;
5811;SDS011;2932;52.400;9.558;2023-11-18T06:23:45;28.03;;;17.17;;
5811;SDS011;2932;52.400;9.558;2023-11-18T06:26:12;22.53;;;15.60;;
5811;SDS011;2932;52.400;9.558;2023-11-18T06:28:38;31.90;;;18.17;;
5811;SDS011;2932;52.400;9.558;2023-11-18T06:31:05;29.10;;;17.30;;
5811;SDS011;2932;52.400;9.558;2023-11-18T06:33:35;27.63;;;17.00;;
5811;SDS011;2932;52.400;9.558;2023-11-18T06:36:02;26.17;;;17.07;;
5811;SDS011;2932;52.400;9.558;2023-11-18T06:38:28;29.90;;;18.83;;
5811;SDS011;2932;52.400;9.558;2023-11-18T06:40:55;27.23;;;16.27;;
5811;SDS011;2932;52.400;9.558;2023-11-18T06:43:23;27.43;;;16.20;;
5811;SDS011;2932;52.400;9.558;2023-11-18T06:45:49;25.57;;;16.40;;
5811;SDS011;2932;52.400;9.558;2023-11-18T06:48:15;28.57;;;17.23;;
5811;SDS011;2932;52.400;9.558;2023-11-18T06:50:40;27.03;;;17.43;;
5811;SDS011;2932;52.400;9.558;2023-11-18T06:53:09;30.07;;;17.00;;
5811;SDS011;2932;52.400;9.558;2023-11-18T06:55:35;26.43;;;16.63;;
5811;SDS011;2932;52.400;9.558;2023-11-18T06:58:01;32.87;;;18.10;;
5811;SDS011;2932;52.400;9.558;2023-11-18T07:00:27;29.30;;;17.73;;
5811;SDS011;2932;52.400;9.558;2023-11-18T07:02:54;30.27;;;17.43;;
5811;SDS011;2932;52.400;9.558;2023-11-18T07:05:19;32.83;;;18.03;;
5811;SDS011;2932;52.400;9.558;2023-11-18T07:07:45;28.10;;;16.77;;
5811;SDS011;2932;52.400;9.558;2023-11-18T07:10:11;30.53;;;17.37;;
5811;SDS011;2932;52.400;9.558;2023-11-18T07:12:38;30.37;;;18.40;;
5811;SDS011;2932;52.400;9.558;2023-11-18T07:15:04;33.10;;;17.00;;
5811;SDS011;2932;52.400;9.558;2023-11-18T07:17:30;32.00;;;17.67;;
5811;SDS011;2932;52.400;9.558;2023-11-18T07:19:55;32.97;;;17.97;;
5811;SDS011;2932;52.400;9.558;2023-11-18T07:22:21;29.93;;;16.20;;
5811;SDS011;2932;52.400;9.558;2023-11-18T07:24:46;28.07;;;16.57;;
5811;SDS011;2932;52.400;9.558;2023-11-18T07:27:12;30.93;;;18.23;;
5811;SDS011;2932;52.400;9.558;2023-11-18T07:29:38;30.20;;;17.43;;
5811;SDS011;2932;52.400;9.558;2023-11-18T07:32:03;33.83;;;19.37;;
5811;SDS011;2932;52.400;9.558;2023-11-18T07:34:33;33.27;;;18.23;;
5811;SDS011;2932;52.400;9.558;2023-11-18T07:36:59;33.70;;;18.00;;
5811;SDS011;2932;52.400;9.558;2023-11-18T07:39:24;32.57;;;17.13;;
5811;SDS011;2932;52.400;9.558;2023-11-18T07:42:08;35.43;;;17.53;;
5811;SDS011;2932;52.400;9.558;2023-11-18T07:44:34;31.73;;;16.97;;
5811;SDS011;2932;52.400;9.558;2023-11-18T07:46:59;33.47;;;18.27;;
5811;SDS011;2932;52.400;9.558;2023-11-18T07:49:24;33.27;;;18.20;;
5811;SDS011;2932;52.400;9.558;2023-11-18T07:51:51;34.07;;;18.37;;
5811;SDS011;2932;52.400;9.558;2023-11-18T07:54:16;34.97;;;18.20;;
5811;SDS011;2932;52.400;9.558;2023-11-18T07:56:43;28.80;;;16.23;;
5811;SDS011;2932;52.400;9.558;2023-11-18T07:59:11;30.70;;;16.93;;
5811;SDS011;2932;52.400;9.558;2023-11-18T08:01:41;32.80;;;16.93;;
5811;SDS011;2932;52.400;9.558;2023-11-18T08:04:10;34.27;;;17.87;;
5811;SDS011;2932;52.400;9.558;2023-11-18T08:06:36;32.10;;;17.47;;
5811;SDS011;2932;52.400;9.558;2023-11-18T08:09:02;32.77;;;16.90;;
5811;SDS011;2932;52.400;9.558;2023-11-18T08:11:28;30.80;;;18.20;;
5811;SDS011;2932;52.400;9.558;2023-11-18T08:13:54;30.87;;;17.30;;
5811;SDS011;2932;52.400;9.558;2023-11-18T08:16:20;32.17;;;17.63;;
5811;SDS011;2932;52.400;9.558;2023-11-18T08:18:47;34.53;;;17.90;;
5811;SDS011;2932;52.400;9.558;2023-11-18T08:21:12;32.17;;;19.13;;
5811;SDS011;2932;52.400;9.558;2023-11-18T08:23:38;35.30;;;19.10;;
5811;SDS011;2932;52.400;9.558;2023-11-18T08:26:04;34.23;;;18.63;;
5811;SDS011;2932;52.400;9.558;2023-11-18T08:28:30;32.53;;;18.37;;
5811;SDS011;2932;52.400;9.558;2023-11-18T08:30:56;38.53;;;19.73;;
5811;SDS011;2932;52.400;9.558;2023-11-18T08:33:21;35.93;;;18.27;;
5811;SDS011;2932;52.400;9.558;2023-11-18T08:35:50;37.50;;;18.27;;
5811;SDS011;2932;52.400;9.558;2023-11-18T08:38:15;34.13;;;17.27;;
5811;SDS011;2932;52.400;9.558;2023-11-18T08:40:41;36.87;;;18.10;;
5811;SDS011;2932;52.400;9.558;2023-11-18T08:43:07;40.77;;;18.23;;
5811;SDS011;2932;52.400;9.558;2023-11-18T08:45:33;44.63;;;19.20;;
5811;SDS011;2932;52.400;9.558;2023-11-18T08:48:00;37.70;;;19.73;;
5811;SDS011;2932;52.400;9.558;2023-11-18T08:50:32;37.37;;;18.53;;
5811;SDS011;2932;52.400;9.558;2023-11-18T08:52:59;38.90;;;19.07;;
5811;SDS011;2932;52.400;9.558;2023-11-18T08:55:28;35.97;;;17.20;;
5811;SDS011;2932;52.400;9.558;2023-11-18T08:58:04;42.07;;;19.60;;
5811;SDS011;2932;52.400;9.558;2023-11-18T09:00:53;42.53;;;18.83;;
5811;SDS011;2932;52.400;9.558;2023-11-18T09:03:30;42.27;;;17.70;;
5811;SDS011;2932;52.400;9.558;2023-11-18T09:06:07;33.70;;;18.07;;
5811;SDS011;2932;52.400;9.558;2023-11-18T09:08:43;41.00;;;18.97;;
5811;SDS011;2932;52.400;9.558;2023-11-18T09:11:18;38.80;;;17.33;;
5811;SDS011;2932;52.400;9.558;2023-11-18T09:13:45;35.70;;;18.00;;
5811;SDS011;2932;52.400;9.558;2023-11-18T09:16:14;39.50;;;18.60;;
5811;SDS011;2932;52.400;9.558;2023-11-18T09:18:41;35.53;;;17.33;;
5811;SDS011;2932;52.400;9.558;2023-11-18T09:21:09;38.87;;;19.40;;
5811;SDS011;2932;52.400;9.558;2023-11-18T09:23:44;37.53;;;16.43;;
5811;SDS011;2932;52.400;9.558;2023-11-18T09:26:12;37.73;;;18.40;;
5811;SDS011;2932;52.400;9.558;2023-11-18T09:28:39;38.00;;;16.47;;
5811;SDS011;2932;52.400;9.558;2023-11-18T09:31:05;35.23;;;16.23;;
5811;SDS011;2932;52.400;9.558;2023-11-18T09:33:36;37.17;;;17.57;;
5811;SDS011;2932;52.400;9.558;2023-11-18T09:38:32;31.53;;;16.00;;
5811;SDS011;2932;52.400;9.558;2023-11-18T09:41:00;34.73;;;16.40;;
5811;SDS011;2932;52.400;9.558;2023-11-18T09:43:31;34.07;;;16.23;;
5811;SDS011;2932;52.400;9.558;2023-11-18T09:46:27;32.07;;;15.00;;
5811;SDS011;2932;52.400;9.558;2023-11-18T09:49:06;31.97;;;16.03;;
5811;SDS011;2932;52.400;9.558;2023-11-18T09:51:58;29.23;;;15.03;;
5811;SDS011;2932;52.400;9.558;2023-11-18T09:59:38;31.73;;;15.10;;
5811;SDS011;2932;52.400;9.558;2023-11-18T10:02:38;27.03;;;14.67;;
5811;SDS011;2932;52.400;9.558;2023-11-18T10:05:05;32.37;;;14.40;;
5811;SDS011;2932;52.400;9.558;2023-11-18T10:07:37;29.03;;;13.80;;
5811;SDS011;2932;52.400;9.558;2023-11-18T10:10:10;26.93;;;13.53;;
5811;SDS011;2932;52.400;9.558;2023-11-18T10:12:45;23.97;;;13.13;;
5811;SDS011;2932;52.400;9.558;2023-11-18T10:15:12;26.80;;;13.37;;
5811;SDS011;2932;52.400;9.558;2023-11-18T10:17:41;25.23;;;13.27;;
5811;SDS011;2932;52.400;9.558;2023-11-18T10:20:20;25.07;;;11.70;;
5811;SDS011;2932;52.400;9.558;2023-11-18T10:22:50;25.63;;;13.73;;
5811;SDS011;2932;52.400;9.558;2023-11-18T10:25:30;25.17;;;12.03;;
5811;SDS011;2932;52.400;9.558;2023-11-18T10:27:56;26.17;;;12.57;;
5811;SDS011;2932;52.400;9.558;2023-11-18T10:30:22;24.00;;;11.80;;
5811;SDS011;2932;52.400;9.558;2023-11-18T10:32:58;23.40;;;12.50;;
5811;SDS011;2932;52.400;9.558;2023-11-18T10:35:32;23.80;;;12.20;;
5811;SDS011;2932;52.400;9.558;2023-11-18T10:37:59;22.60;;;11.47;;
5811;SDS011;2932;52.400;9.558;2023-11-18T10:40:31;20.87;;;10.53;;
5811;SDS011;2932;52.400;9.558;2023-11-18T10:43:00;19.93;;;10.50;;
5811;SDS011;2932;52.400;9.558;2023-11-18T10:45:26;20.70;;;9.50;;
5811;SDS011;2932;52.400;9.558;2023-11-18T10:47:52;17.93;;;10.17;;
5811;SDS011;2932;52.400;9.558;2023-11-18T10:50:21;19.33;;;9.27;;
5811;SDS011;2932;52.400;9.558;2023-11-18T10:52:47;16.90;;;8.87;;
5811;SDS011;2932;52.400;9.558;2023-11-18T10:55:13;18.10;;;9.70;;
5811;SDS011;2932;52.400;9.558;2023-11-18T10:57:44;16.57;;;8.70;;
5811;SDS011;2932;52.400;9.558;2023-11-18T11:00:09;15.57;;;8.10;;
5811;SDS011;2932;52.400;9.558;2023-11-18T11:02:41;15.97;;;8.03;;
5811;SDS011;2932;52.400;9.558;2023-11-18T11:05:07;13.27;;;7.70;;
5811;SDS011;2932;52.400;9.558;2023-11-18T11:07:33;14.87;;;7.77;;
5811;SDS011;2932;52.400;9.558;2023-11-18T11:10:01;13.57;;;7.87;;
5811;SDS011;2932;52.400;9.558;2023-11-18T11:12:32;12.63;;;7.23;;
5811;SDS011;2932;52.400;9.558;2023-11-18T11:15:12;11.07;;;6.67;;
5811;SDS011;2932;52.400;9.558;2023-11-18T11:17:47;16.60;;;6.97;;
5811;SDS011;2932;52.400;9.558;2023-11-18T11:20:20;12.70;;;7.33;;
5811;SDS011;2932;52.400;9.558;2023-11-18T11:28:37;13.17;;;6.27;;
5811;SDS011;2932;52.400;9.558;2023-11-18T11:31:12;12.70;;;6.47;;
5811;SDS011;2932;52.400;9.558;2023-11-18T11:33:49;13.23;;;6.50;;
5811;SDS011;2932;52.400;9.558;2023-11-18T11:36:25;17.23;;;6.53;;
5811;SDS011;2932;52.400;9.558;2023-11-18T11:38:56;11.37;;;6.10;;
5811;SDS011;2932;52.400;9.558;2023-11-18T11:41:23;9.43;;;5.70;;
5811;SDS011;2932;52.400;9.558;2023-11-18T11:43:51;8.60;;;5.50;;
5811;SDS011;2932;52.400;9.558;2023-11-18T11:46:24;10.50;;;5.73;;
5811;SDS011;2932;52.400;9.558;2023-11-18T11:48:52;11.20;;;5.83;;
5811;SDS011;2932;52.400;9.558;2023-11-18T11:54:27;9.50;;;5.87;;
5811;SDS011;2932;52.400;9.558;2023-11-18T11:56:55;8.90;;;4.83;;
5811;SDS011;2932;52.400;9.558;2023-11-18T12:02:18;8.17;;;4.83;;
5811;SDS011;2932;52.400;9.558;2023-11-18T12:04:49;9.43;;;5.17;;
5811;SDS011;2932;52.400;9.558;2023-11-18T12:07:19;9.17;;;5.20;;
5811;SDS011;2932;52.400;9.558;2023-11-18T12:09:48;8.37;;;5.47;;
5811;SDS011;2932;52.400;9.558;2023-11-18T12:12:19;9.10;;;5.23;;
5811;SDS011;2932;52.400;9.558;2023-11-18T12:14:49;9.80;;;5.10;;
5811;SDS011;2932;52.400;9.558;2023-11-18T12:17:17;8.33;;;5.53;;
5811;SDS011;2932;52.400;9.558;2023-11-18T12:19:49;8.87;;;5.30;;
5811;SDS011;2932;52.400;9.558;2023-11-18T12:22:22;8.93;;;5.77;;
5811;SDS011;2932;52.400;9.558;2023-11-18T12:30:04;7.20;;;4.80;;
5811;SDS011;2932;52.400;9.558;2023-11-18T12:33:01;10.73;;;6.27;;
5811;SDS011;2932;52.400;9.558;2023-11-18T12:35:35;10.80;;;6.20;;
5811;SDS011;2932;52.400;9.558;2023-11-18T12:41:00;6.17;;;4.20;;
5811;SDS011;2932;52.400;9.558;2023-11-18T12:43:48;6.63;;;4.43;;
5811;SDS011;2932;52.400;9.558;2023-11-18T12:49:36;7.37;;;4.93;;
5811;SDS011;2932;52.400;9.558;2023-11-18T12:52:06;7.77;;;4.60;;
5811;SDS011;2932;52.400;9.558;2023-11-18T12:54:39;7.37;;;4.63;;
5811;SDS011;2932;52.400;9.558;2023-11-18T12:57:09;6.00;;;4.67;;
5811;SDS011;2932;52.400;9.558;2023-11-18T12:59:38;9.43;;;5.20;;
5811;SDS011;2932;52.400;9.558;2023-11-18T13:02:08;6.87;;;5.07;;
5811;SDS011;2932;52.400;9.558;2023-11-18T13:04:43;7.83;;;4.70;;
5811;SDS011;2932;52.400;9.558;2023-11-18T13:07:12;6.97;;;4.63;;
5811;SDS011;2932;52.400;9.558;2023-11-18T13:09:38;7.57;;;5.10;;
5811;SDS011;2932;52.400;9.558;2023-11-18T13:12:06;8.37;;;4.73;;
5811;SDS011;2932;52.400;9.558;2023-11-18T13:14:34;7.17;;;5.00;;
5811;SDS011;2932;52.400;9.558;2023-11-18T13:17:04;10.93;;;5.77;;
5811;SDS011;2932;52.400;9.558;2023-11-18T13:19:33;8.53;;;5.47;;
5811;SDS011;2932;52.400;9.558;2023-11-18T13:22:00;9.83;;;5.77;;
5811;SDS011;2932;52.400;9.558;2023-11-18T13:24:28;7.10;;;4.73;;
5811;SDS011;2932;52.400;9.558;2023-11-18T13:26:54;8.50;;;5.63;;
5811;SDS011;2932;52.400;9.558;2023-11-18T13:29:22;9.43;;;5.20;;
5811;SDS011;2932;52.400;9.558;2023-11-18T13:31:48;10.00;;;5.40;;
5811;SDS011;2932;52.400;9.558;2023-11-18T13:34:16;8.17;;;5.07;;
5811;SDS011;2932;52.400;9.558;2023-11-18T13:36:42;7.57;;;5.33;;
5811;SDS011;2932;52.400;9.558;2023-11-18T13:39:09;9.63;;;5.57;;
5811;SDS011;2932;52.400;9.558;2023-11-18T13:41:41;8.50;;;5.80;;
5811;SDS011;2932;52.400;9.558;2023-11-18T13:44:07;9.03;;;5.30;;
5811;SDS011;2932;52.400;9.558;2023-11-18T13:46:37;9.43;;;5.43;;
5811;SDS011;2932;52.400;9.558;2023-11-18T13:49:06;13.83;;;6.80;;
5811;SDS011;2932;52.400;9.558;2023-11-18T13:51:32;8.77;;;6.27;;
5811;SDS011;2932;52.400;9.558;2023-11-18T13:54:00;9.10;;;6.00;;
5811;SDS011;2932;52.400;9.558;2023-11-18T13:56:26;10.60;;;5.90;;
5811;SDS011;2932;52.400;9.558;2023-11-18T13:58:53;10.10;;;5.50;;
5811;SDS011;2932;52.400;9.558;2023-11-18T14:01:19;8.97;;;6.37;;
5811;SDS011;2932;52.400;9.558;2023-11-18T14:03:45;5.97;;;5.07;;
5811;SDS011;2932;52.400;9.558;2023-11-18T14:06:12;8.13;;;5.53;;
5811;SDS011;2932;52.400;9.558;2023-11-18T14:08:42;8.03;;;5.13;;
5811;SDS011;2932;52.400;9.558;2023-11-18T14:11:08;10.83;;;6.10;;
5811;SDS011;2932;52.400;9.558;2023-11-18T14:13:34;7.50;;;5.23;;
5811;SDS011;2932;52.400;9.558;2023-11-18T14:16:03;8.10;;;5.30;;
5811;SDS011;2932;52.400;9.558;2023-11-18T14:18:34;8.73;;;5.63;;
5811;SDS011;2932;52.400;9.558;2023-11-18T14:21:01;11.37;;;6.43;;
5811;SDS011;2932;52.400;9.558;2023-11-18T14:23:26;7.50;;;5.27;;
5811;SDS011;2932;52.400;9.558;2023-11-18T14:25:51;8.27;;;5.97;;
5811;SDS011;2932;52.400;9.558;2023-11-18T14:28:17;8.73;;;6.27;;
5811;SDS011;2932;52.400;9.558;2023-11-18T14:30:43;8.13;;;5.87;;
5811;SDS011;2932;52.400;9.558;2023-11-18T14:33:09;7.97;;;5.77;;
5811;SDS011;2932;52.400;9.558;2023-11-18T14:35:34;8.73;;;5.93;;
5811;SDS011;2932;52.400;9.558;2023-11-18T14:38:00;6.77;;;5.17;;
5811;SDS011;2932;52.400;9.558;2023-11-18T14:40:26;9.77;;;5.90;;
5811;SDS011;2932;52.400;9.558;2023-11-18T14:42:53;6.80;;;5.33;;
5811;SDS011;2932;52.400;9.558;2023-11-18T14:45:19;9.90;;;5.80;;
5811;SDS011;2932;52.400;9.558;2023-11-18T14:47:45;8.23;;;5.70;;
5811;SDS011;2932;52.400;9.558;2023-11-18T14:50:12;7.20;;;5.23;;
5811;SDS011;2932;52.400;9.558;2023-11-18T14:52:43;6.77;;;4.73;;
5811;SDS011;2932;52.400;9.558;2023-11-18T14:55:13;8.87;;;5.60;;
5811;SDS011;2932;52.400;9.558;2023-11-18T14:57:39;7.57;;;5.30;;
5811;SDS011;2932;52.400;9.558;2023-11-18T15:00:06;12.67;;;7.43;;
5811;SDS011;2932;52.400;9.558;2023-11-18T15:02:37;20.13;;;13.60;;
5811;SDS011;2932;52.400;9.558;2023-11-18T15:05:02;31.07;;;18.50;;
5811;SDS011;2932;52.400;9.558;2023-11-18T15:07:33;9.37;;;6.37;;
5811;SDS011;2932;52.400;9.558;2023-11-18T15:09:59;7.20;;;5.37;;
5811;SDS011;2932;52.400;9.558;2023-11-18T15:12:24;6.70;;;4.80;;
5811;SDS011;2932;52.400;9.558;2023-11-18T15:14:49;6.13;;;5.33;;
5811;SDS011;2932;52.400;9.558;2023-11-18T15:17:15;6.43;;;5.10;;
5811;SDS011;2932;52.400;9.558;2023-11-18T15:19:40;6.53;;;4.70;;
5811;SDS011;2932;52.400;9.558;2023-11-18T15:22:05;9.00;;;5.10;;
5811;SDS011;2932;52.400;9.558;2023-11-18T15:24:30;7.17;;;5.03;;
5811;SDS011;2932;52.400;9.558;2023-11-18T15:26:57;7.90;;;5.40;;
5811;SDS011;2932;52.400;9.558;2023-11-18T15:29:25;5.50;;;4.57;;
5811;SDS011;2932;52.400;9.558;2023-11-18T15:31:56;6.63;;;4.67;;
5811;SDS011;2932;52.400;9.558;2023-11-18T15:34:21;7.40;;;4.53;;